Beauvallon, South Africa
Current Conditions -  °F | °C
As of 6:00 PM on Sunday 23 Nov 2014 (Local Time) from FAUP Reporting Station
Few Clouds Few Clouds  
Wind Chill: 90°   Ceiling: Unl
Heat Index: 90°   Visibility: 6mi
Dew Point: 30°   Wind: 10mph
Humidity: 12%   Direction: 230°SW
Pressure: 29.88"   Gusts: NA
Location:  28.5°S, 16.63°E
Report Text: FAUP 231600Z 23009KT 9999 FEW050 32/M01 Q1012 NOSIG
Loading
Personal Weather Stations






























Interactive Weather Map New forecast layout! Learn more

10-Day Weather Forecast

Advertisements
Track Severe Weather on mobile